Aviation Digital Data Service (ADDS)

Output produced by METARs form (2114 UTC 13 November 2019)
found at http://www.aviationweather.gov/metar/data/
 
Forecast for: CYVR (VANCOUVER INTL A, BC, CA)
Text: TAF CYVR 132038Z 1321/1424 26006KT P6SM FEW015 BKN200
Forecast period: 2100 UTC 13 November 2019 to 0600 UTC 14 November 2019
Forecast type: FROM: standard forecast or significant change
Winds: from the W (260 degrees) at 7 MPH (6 knots; 3.1 m/s)
Visibility: 6 or more miles 10+ km)
Ceiling: 20000 feet AGL
Clouds: few clouds at 1500 feet AGL
broken clouds at 20000 feet AGL
Weather: no significant weather forecast for this period
Text: FM140600 VRB03KT P6SM FEW005 BKN150
Forecast period: 0600 to 1500 UTC 14 November 2019
Forecast type: FROM: standard forecast or significant change
Winds: variable direction winds at 3 MPH (3 knots; 1.5 m/s)
Visibility: 6 or more miles 10+ km)
Ceiling: 15000 feet AGL
Clouds: few clouds at 500 feet AGL
broken clouds at 15000 feet AGL
Weather: no significant weather forecast for this period
Text: FM141500 08005KT P6SM FEW005 BKN100 RMK NXT FCST BY 140000Z
Forecast period: 1500 UTC 14 November 2019 to 0000 UTC 15 November 2019
Forecast type: FROM: standard forecast or significant change
Winds: from the E (80 degrees) at 6 MPH (5 knots; 2.6 m/s)
Visibility: 6 or more miles 10+ km)
Ceiling: 10000 feet AGL
Clouds: few clouds at 500 feet AGL
broken clouds at 10000 feet AGL
Weather: no significant weather forecast for this period